createdAt,value
2018-11-01T00:00:47.216Z,9.83
2018-11-01T00:04:51.136Z,9.75
2018-11-01T00:08:55.089Z,9.71
2018-11-01T00:12:58.966Z,9.71
2018-11-01T00:17:02.856Z,9.71
2018-11-01T00:21:07.708Z,9.81
2018-11-01T00:25:12.632Z,9.75
2018-11-01T00:29:16.501Z,9.73
2018-11-01T00:33:20.411Z,9.74
2018-11-01T00:37:24.289Z,9.65
2018-11-01T00:41:28.120Z,9.70
2018-11-01T00:45:32.853Z,9.78
2018-11-01T00:49:36.849Z,9.86
2018-11-01T00:53:40.749Z,9.96
2018-11-01T00:57:44.830Z,9.99
2018-11-01T01:01:49.103Z,9.92
2018-11-01T01:05:53.660Z,9.95
2018-11-01T01:09:57.879Z,10.00
2018-11-01T01:14:02.223Z,9.84
2018-11-01T01:18:06.920Z,9.80
2018-11-01T01:22:11.287Z,9.89
2018-11-01T01:26:15.697Z,9.94
2018-11-01T01:30:21.344Z,9.95
2018-11-01T01:34:25.697Z,9.85
2018-11-01T01:38:29.883Z,9.92
2018-11-01T01:42:38.084Z,9.91
2018-11-01T01:46:42.190Z,9.86
2018-11-01T01:50:46.462Z,9.94
2018-11-01T01:54:50.749Z,9.92
2018-11-01T01:58:54.954Z,9.96
2018-11-01T02:03:00.162Z,9.88
2018-11-01T02:07:05.237Z,9.93
2018-11-01T02:11:10.487Z,9.94
2018-11-01T02:15:16.563Z,9.82
2018-11-01T02:19:20.970Z,9.82
2018-11-01T02:23:25.441Z,9.87
2018-11-01T02:27:34.171Z,9.73
2018-11-01T02:31:39.418Z,9.69
2018-11-01T02:35:43.895Z,9.68
2018-11-01T02:39:47.979Z,9.68
2018-11-01T02:43:52.105Z,9.77
2018-11-01T02:47:56.261Z,9.77
2018-11-01T02:52:00.813Z,9.75
2018-11-01T02:56:05.827Z,9.69
2018-11-01T03:00:12.935Z,9.73
2018-11-01T03:04:17.307Z,9.75
2018-11-01T03:08:21.721Z,9.76
2018-11-01T03:12:25.829Z,9.78
2018-11-01T03:16:30.472Z,9.73
2018-11-01T03:20:34.523Z,9.79
2018-11-01T03:24:39.127Z,9.81
2018-11-01T03:28:43.285Z,9.80
2018-11-01T03:32:47.351Z,9.84
2018-11-01T03:36:51.628Z,9.80
2018-11-01T03:40:55.767Z,9.85
2018-11-01T03:45:00.281Z,9.90
2018-11-01T03:49:05.608Z,9.93
2018-11-01T03:53:09.701Z,9.96
2018-11-01T03:57:13.885Z,9.96
2018-11-01T04:01:18.164Z,9.97
2018-11-01T04:05:22.199Z,9.99
2018-11-01T04:09:26.783Z,9.94
2018-11-01T04:13:31.215Z,9.86
2018-11-01T04:17:35.340Z,9.74
2018-11-01T04:21:39.630Z,9.66
2018-11-01T04:25:43.703Z,9.57
2018-11-01T04:29:48.335Z,9.56
2018-11-01T04:33:52.403Z,9.57
2018-11-01T04:37:56.530Z,9.64
2018-11-01T04:42:00.904Z,9.62
2018-11-01T04:46:05.273Z,9.61
2018-11-01T04:50:10.513Z,9.62
2018-11-01T04:54:15.873Z,9.57
2018-11-01T04:58:19.923Z,9.49
2018-11-01T05:02:24.265Z,9.48
2018-11-01T05:06:28.489Z,9.42
2018-11-01T05:10:32.611Z,9.40
2018-11-01T05:14:37.201Z,9.34
2018-11-01T05:18:41.955Z,9.28
2018-11-01T05:22:47.004Z,9.27
2018-11-01T05:26:51.300Z,9.20
2018-11-01T05:30:56.180Z,9.11
2018-11-01T05:35:00.611Z,9.03
2018-11-01T05:39:08.158Z,8.98
2018-11-01T05:43:16.613Z,8.92
2018-11-01T05:47:20.653Z,8.89
2018-11-01T05:51:25.117Z,8.79
2018-11-01T05:55:30.138Z,8.81
2018-11-01T05:59:34.411Z,8.73
2018-11-01T06:03:38.260Z,8.74
2018-11-01T06:07:46.733Z,8.74
2018-11-01T06:11:51.490Z,8.79
2018-11-01T06:15:56.704Z,8.85
2018-11-01T06:20:01.555Z,8.92
2018-11-01T06:24:05.883Z,8.87
2018-11-01T06:28:10.206Z,8.92
2018-11-01T06:32:14.642Z,9.00
2018-11-01T06:36:19.095Z,8.93
2018-11-01T06:40:23.854Z,8.96
2018-11-01T06:44:28.046Z,9.01
2018-11-01T06:48:32.586Z,9.13
2018-11-01T06:52:39.421Z,9.29
2018-11-01T06:56:44.445Z,9.22
2018-11-01T07:00:49.411Z,9.22
2018-11-01T07:04:53.698Z,9.22
2018-11-01T07:08:57.893Z,9.26
2018-11-01T07:13:02.447Z,9.40
2018-11-01T07:17:06.530Z,9.49
2018-11-01T07:21:10.728Z,9.48
2018-11-01T07:25:16.192Z,9.53
2018-11-01T07:29:20.108Z,9.64
2018-11-01T07:33:24.196Z,9.62
2018-11-01T07:37:28.232Z,9.52
2018-11-01T07:41:32.303Z,9.46
2018-11-01T07:45:36.357Z,9.64
2018-11-01T07:49:40.612Z,9.62
2018-11-01T07:53:44.992Z,9.59
2018-11-01T07:57:49.160Z,9.75
2018-11-01T08:01:53.222Z,9.87
2018-11-01T08:05:57.300Z,9.96
2018-11-01T08:10:02.020Z,10.07
2018-11-01T08:14:06.460Z,10.16
2018-11-01T08:18:10.574Z,10.17
2018-11-01T08:22:14.591Z,10.18
2018-11-01T08:26:18.708Z,10.30
2018-11-01T08:30:22.676Z,10.33
2018-11-01T08:34:26.649Z,10.45
2018-11-01T08:38:30.912Z,10.68
2018-11-01T08:42:34.975Z,10.82
2018-11-01T08:46:39.129Z,11.02
2018-11-01T08:50:44.264Z,11.09
2018-11-01T08:54:48.341Z,11.29
2018-11-01T08:58:52.448Z,11.55
2018-11-01T09:02:56.636Z,11.78
2018-11-01T09:07:00.481Z,11.71
2018-11-01T09:11:05.208Z,11.99
2018-11-01T09:15:10.890Z,12.15
2018-11-01T09:19:15.151Z,12.27
2018-11-01T09:23:19.185Z,12.39
2018-11-01T09:27:23.504Z,12.64
2018-11-01T09:31:27.363Z,12.82
2018-11-01T09:35:31.731Z,13.06
2018-11-01T09:39:35.922Z,12.98
2018-11-01T09:43:40.148Z,13.41
2018-11-01T09:47:44.594Z,13.45
2018-11-01T09:51:49.578Z,13.32
2018-11-01T09:55:53.750Z,13.79
2018-11-01T09:59:57.875Z,13.81
2018-11-01T10:04:02.474Z,13.97
2018-11-01T10:08:06.541Z,13.79
2018-11-01T10:12:10.416Z,13.98
2018-11-01T10:16:14.567Z,13.85
2018-11-01T10:20:18.439Z,13.79
2018-11-01T10:24:22.360Z,13.87
2018-11-01T10:28:26.251Z,13.54
2018-11-01T10:32:30.155Z,13.28
2018-11-01T10:36:34.025Z,13.37
2018-11-01T10:40:38.656Z,13.31
2018-11-01T10:44:42.434Z,13.50
2018-11-01T10:48:46.351Z,13.84
2018-11-01T10:52:50.274Z,13.89
2018-11-01T10:56:54.099Z,14.02
2018-11-01T11:01:03.257Z,13.88
2018-11-01T11:05:07.123Z,13.58
2018-11-01T11:09:10.997Z,13.52
2018-11-01T11:13:14.952Z,13.72
2018-11-01T11:17:18.828Z,14.01
2018-11-01T11:21:22.781Z,14.18
2018-11-01T11:25:26.682Z,14.41
2018-11-01T11:29:30.579Z,14.56
2018-11-01T11:33:34.479Z,14.77
2018-11-01T11:37:38.335Z,14.71
2018-11-01T11:41:42.667Z,14.67
2018-11-01T11:45:46.612Z,14.52
2018-11-01T11:49:50.509Z,14.34
2018-11-01T11:53:54.363Z,14.30
2018-11-01T11:57:58.574Z,14.25
2018-11-01T12:02:02.647Z,14.07
2018-11-01T12:06:08.416Z,13.97
2018-11-01T12:10:13.746Z,13.99
2018-11-01T12:14:18.478Z,14.04
2018-11-01T12:18:22.391Z,13.87
2018-11-01T12:22:26.456Z,14.01
2018-11-01T12:26:30.308Z,14.17
2018-11-01T12:30:34.401Z,14.15
2018-11-01T12:34:39.080Z,14.23
2018-11-01T12:38:43.453Z,14.12
2018-11-01T12:42:47.512Z,14.14
2018-11-01T12:46:51.484Z,14.02
2018-11-01T12:50:55.428Z,13.89
2018-11-01T12:54:59.306Z,13.80
2018-11-01T12:59:03.216Z,13.78
2018-11-01T13:03:07.752Z,13.77
2018-11-01T13:07:12.128Z,13.67
2018-11-01T13:11:16.692Z,13.48
2018-11-01T13:15:21.127Z,13.36
2018-11-01T13:19:25.760Z,13.40
2018-11-01T13:23:29.676Z,13.40
2018-11-01T13:27:33.556Z,13.34
2018-11-01T13:31:37.522Z,13.20
2018-11-01T13:35:41.401Z,13.13
2018-11-01T13:39:45.351Z,13.02
2018-11-01T13:43:49.487Z,12.92
2018-11-01T13:47:53.422Z,12.87
2018-11-01T13:51:57.241Z,12.69
2018-11-01T13:56:02.380Z,12.58
2018-11-01T14:00:06.750Z,12.46
2018-11-01T14:04:10.640Z,12.28
2018-11-01T14:08:14.539Z,12.19
2018-11-01T14:12:18.416Z,12.16
2018-11-01T14:16:23.176Z,12.01
2018-11-01T14:20:27.084Z,11.97
2018-11-01T14:24:31.001Z,11.90
2018-11-01T14:28:34.919Z,11.89
2018-11-01T14:32:39.084Z,11.83
2018-11-01T14:36:43.016Z,11.69
2018-11-01T14:40:47.596Z,11.57
2018-11-01T14:44:51.555Z,11.39
2018-11-01T14:48:55.480Z,11.33
2018-11-01T14:52:59.587Z,11.23
2018-11-01T14:57:04.074Z,11.15
2018-11-01T15:01:07.362Z,11.07
2018-11-01T15:05:12.469Z,11.03
2018-11-01T15:09:16.563Z,11.00
2018-11-01T15:13:20.587Z,10.88
2018-11-01T15:17:24.415Z,10.87
2018-11-01T15:21:28.325Z,10.78
2018-11-01T15:25:32.172Z,10.71
2018-11-01T15:29:36.065Z,10.69
2018-11-01T15:33:39.976Z,10.63
2018-11-01T15:37:43.763Z,10.59
2018-11-01T15:41:47.668Z,10.58
2018-11-01T15:45:51.817Z,10.55
2018-11-01T15:49:56.598Z,10.51
2018-11-01T15:54:00.536Z,10.48
2018-11-01T15:58:05.103Z,10.51
2018-11-01T16:02:09.027Z,10.61
2018-11-01T16:06:12.909Z,10.60
2018-11-01T16:10:17.207Z,10.59
2018-11-01T16:14:20.994Z,10.60
2018-11-01T16:18:24.876Z,10.65
2018-11-01T16:22:28.785Z,10.63
2018-11-01T16:26:33.893Z,10.63
2018-11-01T16:30:38.809Z,10.67
2018-11-01T16:34:42.725Z,10.73
2018-11-01T16:38:47.390Z,10.67
2018-11-01T16:42:51.860Z,10.67
2018-11-01T16:46:56.371Z,10.71
2018-11-01T16:51:00.676Z,10.72
2018-11-01T16:55:05.650Z,10.66
2018-11-01T16:59:09.518Z,10.60
2018-11-01T17:03:14.749Z,10.57
2018-11-01T17:07:18.879Z,10.55
2018-11-01T17:11:23.028Z,10.52
2018-11-01T17:15:27.389Z,10.48
2018-11-01T17:19:31.544Z,10.47
2018-11-01T17:23:35.439Z,10.53
2018-11-01T17:27:39.603Z,10.50
2018-11-01T17:31:43.503Z,10.54
2018-11-01T17:35:47.428Z,10.50
2018-11-01T17:39:51.401Z,10.47
2018-11-01T17:43:55.322Z,10.47
2018-11-01T17:48:00.078Z,10.47
2018-11-01T17:52:04.991Z,10.48
2018-11-01T17:56:08.917Z,10.45
2018-11-01T18:00:13.903Z,10.48
2018-11-01T18:04:17.836Z,10.49
2018-11-01T18:08:21.826Z,10.40
2018-11-01T18:12:25.626Z,10.45
2018-11-01T18:16:30.124Z,10.43
2018-11-01T18:20:34.024Z,10.40
2018-11-01T18:24:37.904Z,10.38
2018-11-01T18:28:41.873Z,10.37
2018-11-01T18:32:46.365Z,10.42
2018-11-01T18:36:50.101Z,10.45
2018-11-01T18:40:54.133Z,10.45
2018-11-01T18:44:58.558Z,10.38
2018-11-01T18:49:02.456Z,10.33
2018-11-01T18:53:06.400Z,10.41
2018-11-01T18:57:10.547Z,10.39
2018-11-01T19:01:14.877Z,10.27
2018-11-01T19:05:18.944Z,10.22
2018-11-01T19:09:23.141Z,10.16
2018-11-01T19:13:27.275Z,10.17
2018-11-01T19:17:31.320Z,10.17
2018-11-01T19:21:35.274Z,10.21
2018-11-01T19:25:39.292Z,10.13
2018-11-01T19:29:43.176Z,10.12
2018-11-01T19:33:47.498Z,10.16
2018-11-01T19:37:51.354Z,10.17
2018-11-01T19:41:55.270Z,10.21
2018-11-01T19:45:59.237Z,10.26
2018-11-01T19:50:03.363Z,10.28
2018-11-01T19:54:07.384Z,10.24
2018-11-01T19:58:11.559Z,10.24
2018-11-01T20:02:15.565Z,10.23
2018-11-01T20:06:19.767Z,10.19
2018-11-01T20:10:24.268Z,10.20
2018-11-01T20:14:29.831Z,10.16
2018-11-01T20:18:33.948Z,10.14
2018-11-01T20:22:37.839Z,10.13
2018-11-01T20:26:41.806Z,10.14
2018-11-01T20:30:45.650Z,10.15
2018-11-01T20:34:49.704Z,10.17
2018-11-01T20:38:53.592Z,10.15
2018-11-01T20:42:57.609Z,10.13
2018-11-01T20:47:01.794Z,10.12
2018-11-01T20:51:05.986Z,10.14
2018-11-01T20:55:09.893Z,10.11
2018-11-01T20:59:13.800Z,10.13
2018-11-01T21:03:17.745Z,10.12
2018-11-01T21:07:21.631Z,10.14
2018-11-01T21:11:26.487Z,10.17
2018-11-01T21:15:30.919Z,10.17
2018-11-01T21:19:34.845Z,10.14
2018-11-01T21:23:39.961Z,10.18
2018-11-01T21:27:43.857Z,10.18
2018-11-01T21:31:47.787Z,10.22
2018-11-01T21:35:51.743Z,10.24
2018-11-01T21:39:55.520Z,10.28
2018-11-01T21:44:00.342Z,10.27
2018-11-01T21:48:04.814Z,10.28
2018-11-01T21:52:08.673Z,10.31
2018-11-01T21:56:12.589Z,10.33
2018-11-01T22:00:16.781Z,10.35
2018-11-01T22:04:20.745Z,10.35
2018-11-01T22:08:24.654Z,10.38
2018-11-01T22:12:28.678Z,10.38
2018-11-01T22:16:32.616Z,10.43
2018-11-01T22:20:36.638Z,10.45
2018-11-01T22:24:40.583Z,10.41
2018-11-01T22:28:44.838Z,10.41
2018-11-01T22:32:48.704Z,10.42
2018-11-01T22:36:52.937Z,10.41
2018-11-01T22:40:56.808Z,10.41
2018-11-01T22:45:00.913Z,10.39
2018-11-01T22:49:05.139Z,10.37
2018-11-01T22:53:09.024Z,10.35
2018-11-01T22:57:13.541Z,10.35
2018-11-01T23:01:18.143Z,10.35
2018-11-01T23:05:22.350Z,10.34
2018-11-01T23:09:27.436Z,10.35
2018-11-01T23:13:31.339Z,10.33
2018-11-01T23:17:35.267Z,10.34
2018-11-01T23:21:39.192Z,10.32
2018-11-01T23:25:43.394Z,10.34
2018-11-01T23:29:47.269Z,10.33
2018-11-01T23:33:51.188Z,10.34
2018-11-01T23:38:00.370Z,10.39
2018-11-01T23:42:10.449Z,10.38
2018-11-01T23:46:19.722Z,10.36
2018-11-01T23:50:27.175Z,10.39
2018-11-01T23:54:31.369Z,10.42
2018-11-01T23:58:35.236Z,10.42
